sensor_id;sensor_type;location;lat;lon;timestamp;P1;durP1;ratioP1;P2;durP2;ratioP2
26965;SDS011;14522;52.068;4.414;2023-07-20T00:01:29;1.00;;;0.50;;
26965;SDS011;14522;52.068;4.414;2023-07-20T00:03:55;2.15;;;0.75;;
26965;SDS011;14522;52.068;4.414;2023-07-20T00:06:22;1.98;;;0.63;;
26965;SDS011;14522;52.068;4.414;2023-07-20T00:08:50;0.82;;;0.57;;
26965;SDS011;14522;52.068;4.414;2023-07-20T00:11:16;1.98;;;0.82;;
26965;SDS011;14522;52.068;4.414;2023-07-20T00:13:43;0.35;;;0.35;;
26965;SDS011;14522;52.068;4.414;2023-07-20T00:16:10;2.47;;;0.45;;
26965;SDS011;14522;52.068;4.414;2023-07-20T00:18:36;0.50;;;0.30;;
26965;SDS011;14522;52.068;4.414;2023-07-20T00:21:02;1.50;;;0.30;;
26965;SDS011;14522;52.068;4.414;2023-07-20T00:23:30;0.80;;;0.40;;
26965;SDS011;14522;52.068;4.414;2023-07-20T00:25:59;0.30;;;0.30;;
26965;SDS011;14522;52.068;4.414;2023-07-20T00:28:25;0.77;;;0.30;;
26965;SDS011;14522;52.068;4.414;2023-07-20T00:30:51;1.98;;;0.40;;
26965;SDS011;14522;52.068;4.414;2023-07-20T00:33:18;1.92;;;0.30;;
26965;SDS011;14522;52.068;4.414;2023-07-20T00:35:44;0.38;;;0.20;;
26965;SDS011;14522;52.068;4.414;2023-07-20T00:38:11;1.08;;;0.30;;
26965;SDS011;14522;52.068;4.414;2023-07-20T00:40:41;0.20;;;0.20;;
26965;SDS011;14522;52.068;4.414;2023-07-20T00:43:07;0.90;;;0.20;;
26965;SDS011;14522;52.068;4.414;2023-07-20T00:45:34;1.17;;;0.40;;
26965;SDS011;14522;52.068;4.414;2023-07-20T00:48:01;0.40;;;0.30;;
26965;SDS011;14522;52.068;4.414;2023-07-20T00:50:28;0.35;;;0.20;;
26965;SDS011;14522;52.068;4.414;2023-07-20T00:52:55;0.20;;;0.20;;
26965;SDS011;14522;52.068;4.414;2023-07-20T00:55:22;0.20;;;0.10;;
26965;SDS011;14522;52.068;4.414;2023-07-20T00:57:49;0.50;;;0.35;;
26965;SDS011;14522;52.068;4.414;2023-07-20T01:00:16;1.17;;;0.15;;
26965;SDS011;14522;52.068;4.414;2023-07-20T01:02:42;0.95;;;0.20;;
26965;SDS011;14522;52.068;4.414;2023-07-20T01:05:09;0.75;;;0.22;;
26965;SDS011;14522;52.068;4.414;2023-07-20T01:07:39;1.48;;;0.20;;
26965;SDS011;14522;52.068;4.414;2023-07-20T01:10:29;0.30;;;0.13;;
26965;SDS011;14522;52.068;4.414;2023-07-20T01:12:57;0.57;;;0.20;;
26965;SDS011;14522;52.068;4.414;2023-07-20T01:15:24;0.28;;;0.20;;
26965;SDS011;14522;52.068;4.414;2023-07-20T01:17:50;1.55;;;0.20;;
26965;SDS011;14522;52.068;4.414;2023-07-20T01:20:18;1.00;;;0.40;;
26965;SDS011;14522;52.068;4.414;2023-07-20T01:25:32;0.40;;;0.10;;
26965;SDS011;14522;52.068;4.414;2023-07-20T01:33:13;0.13;;;0.13;;
26965;SDS011;14522;52.068;4.414;2023-07-20T01:35:41;0.47;;;0.17;;
26965;SDS011;14522;52.068;4.414;2023-07-20T01:38:07;0.52;;;0.17;;
26965;SDS011;14522;52.068;4.414;2023-07-20T01:40:34;0.30;;;0.20;;
26965;SDS011;14522;52.068;4.414;2023-07-20T01:43:01;0.10;;;0.10;;
26965;SDS011;14522;52.068;4.414;2023-07-20T01:45:28;0.35;;;0.05;;
26965;SDS011;14522;52.068;4.414;2023-07-20T01:47:55;1.45;;;0.20;;
26965;SDS011;14522;52.068;4.414;2023-07-20T01:50:21;0.32;;;0.10;;
26965;SDS011;14522;52.068;4.414;2023-07-20T01:52:47;1.85;;;0.73;;
26965;SDS011;14522;52.068;4.414;2023-07-20T01:55:14;0.80;;;0.20;;
26965;SDS011;14522;52.068;4.414;2023-07-20T01:57:41;0.63;;;0.10;;
26965;SDS011;14522;52.068;4.414;2023-07-20T02:00:07;0.20;;;0.10;;
26965;SDS011;14522;52.068;4.414;2023-07-20T02:02:35;0.73;;;0.13;;
26965;SDS011;14522;52.068;4.414;2023-07-20T02:05:02;0.30;;;0.20;;
26965;SDS011;14522;52.068;4.414;2023-07-20T02:07:28;2.88;;;0.35;;
26965;SDS011;14522;52.068;4.414;2023-07-20T02:09:55;0.50;;;0.20;;
26965;SDS011;14522;52.068;4.414;2023-07-20T02:12:21;0.17;;;0.10;;
26965;SDS011;14522;52.068;4.414;2023-07-20T02:14:48;0.43;;;0.20;;
26965;SDS011;14522;52.068;4.414;2023-07-20T02:17:14;0.28;;;0.20;;
26965;SDS011;14522;52.068;4.414;2023-07-20T02:19:40;0.40;;;0.20;;
26965;SDS011;14522;52.068;4.414;2023-07-20T02:22:07;2.63;;;0.20;;
26965;SDS011;14522;52.068;4.414;2023-07-20T02:24:33;0.10;;;0.10;;
26965;SDS011;14522;52.068;4.414;2023-07-20T02:27:00;0.20;;;0.20;;
26965;SDS011;14522;52.068;4.414;2023-07-20T02:29:26;1.83;;;0.30;;
26965;SDS011;14522;52.068;4.414;2023-07-20T02:31:53;0.30;;;0.20;;
26965;SDS011;14522;52.068;4.414;2023-07-20T02:34:19;0.00;;;0.00;;
26965;SDS011;14522;52.068;4.414;2023-07-20T02:36:45;0.70;;;0.10;;
26965;SDS011;14522;52.068;4.414;2023-07-20T02:39:12;1.80;;;0.30;;
26965;SDS011;14522;52.068;4.414;2023-07-20T02:41:38;0.57;;;0.22;;
26965;SDS011;14522;52.068;4.414;2023-07-20T02:44:05;0.90;;;0.20;;
26965;SDS011;14522;52.068;4.414;2023-07-20T02:46:31;0.88;;;0.25;;
26965;SDS011;14522;52.068;4.414;2023-07-20T02:48:58;0.70;;;0.30;;
26965;SDS011;14522;52.068;4.414;2023-07-20T02:51:24;0.65;;;0.10;;
26965;SDS011;14522;52.068;4.414;2023-07-20T02:53:50;1.13;;;0.30;;
26965;SDS011;14522;52.068;4.414;2023-07-20T02:56:17;0.70;;;0.30;;
26965;SDS011;14522;52.068;4.414;2023-07-20T02:58:44;3.15;;;0.38;;
26965;SDS011;14522;52.068;4.414;2023-07-20T03:01:12;0.73;;;0.28;;
26965;SDS011;14522;52.068;4.414;2023-07-20T03:03:39;1.00;;;0.30;;
26965;SDS011;14522;52.068;4.414;2023-07-20T03:06:06;1.25;;;0.20;;
26965;SDS011;14522;52.068;4.414;2023-07-20T03:08:35;0.50;;;0.30;;
26965;SDS011;14522;52.068;4.414;2023-07-20T03:11:02;0.20;;;0.17;;
26965;SDS011;14522;52.068;4.414;2023-07-20T03:13:29;1.38;;;0.20;;
26965;SDS011;14522;52.068;4.414;2023-07-20T03:15:55;2.28;;;0.30;;
26965;SDS011;14522;52.068;4.414;2023-07-20T03:18:21;0.73;;;0.30;;
26965;SDS011;14522;52.068;4.414;2023-07-20T03:20:48;0.88;;;0.20;;
26965;SDS011;14522;52.068;4.414;2023-07-20T03:23:14;0.57;;;0.25;;
26965;SDS011;14522;52.068;4.414;2023-07-20T03:25:41;3.40;;;0.20;;
26965;SDS011;14522;52.068;4.414;2023-07-20T03:28:08;0.60;;;0.10;;
26965;SDS011;14522;52.068;4.414;2023-07-20T03:30:34;1.27;;;0.35;;
26965;SDS011;14522;52.068;4.414;2023-07-20T03:33:01;0.60;;;0.30;;
26965;SDS011;14522;52.068;4.414;2023-07-20T03:35:29;1.90;;;0.38;;
26965;SDS011;14522;52.068;4.414;2023-07-20T03:37:56;0.43;;;0.40;;
26965;SDS011;14522;52.068;4.414;2023-07-20T03:40:22;1.38;;;0.20;;
26965;SDS011;14522;52.068;4.414;2023-07-20T03:42:49;0.52;;;0.40;;
26965;SDS011;14522;52.068;4.414;2023-07-20T03:45:15;1.52;;;0.30;;
26965;SDS011;14522;52.068;4.414;2023-07-20T03:47:41;5.15;;;0.80;;
26965;SDS011;14522;52.068;4.414;2023-07-20T03:50:08;1.15;;;0.40;;
26965;SDS011;14522;52.068;4.414;2023-07-20T03:52:36;0.22;;;0.22;;
26965;SDS011;14522;52.068;4.414;2023-07-20T03:55:03;3.72;;;0.60;;
26965;SDS011;14522;52.068;4.414;2023-07-20T03:57:29;0.55;;;0.47;;
26965;SDS011;14522;52.068;4.414;2023-07-20T03:59:59;2.42;;;0.52;;
26965;SDS011;14522;52.068;4.414;2023-07-20T04:02:26;0.85;;;0.45;;
26965;SDS011;14522;52.068;4.414;2023-07-20T04:04:52;1.40;;;0.30;;
26965;SDS011;14522;52.068;4.414;2023-07-20T04:07:19;2.92;;;0.40;;
26965;SDS011;14522;52.068;4.414;2023-07-20T04:09:45;0.60;;;0.40;;
26965;SDS011;14522;52.068;4.414;2023-07-20T04:12:11;0.98;;;0.32;;
26965;SDS011;14522;52.068;4.414;2023-07-20T04:14:38;0.40;;;0.40;;
26965;SDS011;14522;52.068;4.414;2023-07-20T04:17:04;2.58;;;0.35;;
26965;SDS011;14522;52.068;4.414;2023-07-20T04:19:31;0.57;;;0.43;;
26965;SDS011;14522;52.068;4.414;2023-07-20T04:21:57;3.53;;;0.55;;
26965;SDS011;14522;52.068;4.414;2023-07-20T04:24:24;2.45;;;0.50;;
26965;SDS011;14522;52.068;4.414;2023-07-20T04:26:51;0.85;;;0.50;;
26965;SDS011;14522;52.068;4.414;2023-07-20T04:29:17;1.67;;;0.30;;
26965;SDS011;14522;52.068;4.414;2023-07-20T04:31:44;1.23;;;0.50;;
26965;SDS011;14522;52.068;4.414;2023-07-20T04:34:10;1.65;;;0.47;;
26965;SDS011;14522;52.068;4.414;2023-07-20T04:36:36;0.60;;;0.50;;
26965;SDS011;14522;52.068;4.414;2023-07-20T04:39:03;0.77;;;0.38;;
26965;SDS011;14522;52.068;4.414;2023-07-20T04:41:39;0.82;;;0.40;;
26965;SDS011;14522;52.068;4.414;2023-07-20T04:44:06;1.17;;;0.43;;
26965;SDS011;14522;52.068;4.414;2023-07-20T04:46:32;3.55;;;0.63;;
26965;SDS011;14522;52.068;4.414;2023-07-20T04:48:59;1.73;;;0.30;;
26965;SDS011;14522;52.068;4.414;2023-07-20T04:51:26;0.10;;;0.10;;
26965;SDS011;14522;52.068;4.414;2023-07-20T04:53:52;2.28;;;0.65;;
26965;SDS011;14522;52.068;4.414;2023-07-20T04:56:19;0.80;;;0.40;;
26965;SDS011;14522;52.068;4.414;2023-07-20T04:58:46;0.60;;;0.40;;
26965;SDS011;14522;52.068;4.414;2023-07-20T05:01:12;2.33;;;0.57;;
26965;SDS011;14522;52.068;4.414;2023-07-20T05:03:38;1.27;;;0.70;;
26965;SDS011;14522;52.068;4.414;2023-07-20T05:06:06;0.65;;;0.50;;
26965;SDS011;14522;52.068;4.414;2023-07-20T05:08:32;2.50;;;1.10;;
26965;SDS011;14522;52.068;4.414;2023-07-20T05:11:02;2.08;;;0.82;;
26965;SDS011;14522;52.068;4.414;2023-07-20T05:13:28;4.05;;;0.77;;
26965;SDS011;14522;52.068;4.414;2023-07-20T05:15:54;0.80;;;0.55;;
26965;SDS011;14522;52.068;4.414;2023-07-20T05:18:22;2.08;;;0.80;;
26965;SDS011;14522;52.068;4.414;2023-07-20T05:20:49;1.70;;;0.60;;
26965;SDS011;14522;52.068;4.414;2023-07-20T05:23:17;1.17;;;0.50;;
26965;SDS011;14522;52.068;4.414;2023-07-20T05:25:43;5.82;;;0.52;;
26965;SDS011;14522;52.068;4.414;2023-07-20T05:28:10;0.40;;;0.30;;
26965;SDS011;14522;52.068;4.414;2023-07-20T05:30:36;3.35;;;0.40;;
26965;SDS011;14522;52.068;4.414;2023-07-20T05:33:03;2.10;;;0.90;;
26965;SDS011;14522;52.068;4.414;2023-07-20T05:35:29;2.08;;;0.57;;
26965;SDS011;14522;52.068;4.414;2023-07-20T05:37:56;1.23;;;0.57;;
26965;SDS011;14522;52.068;4.414;2023-07-20T05:40:22;2.38;;;0.60;;
26965;SDS011;14522;52.068;4.414;2023-07-20T05:42:49;3.63;;;1.00;;
26965;SDS011;14522;52.068;4.414;2023-07-20T05:45:18;0.98;;;0.70;;
26965;SDS011;14522;52.068;4.414;2023-07-20T05:47:44;1.77;;;0.80;;
26965;SDS011;14522;52.068;4.414;2023-07-20T05:50:11;2.33;;;0.73;;
26965;SDS011;14522;52.068;4.414;2023-07-20T05:52:37;3.35;;;0.95;;
26965;SDS011;14522;52.068;4.414;2023-07-20T05:55:05;2.00;;;0.70;;
26965;SDS011;14522;52.068;4.414;2023-07-20T05:57:32;1.88;;;0.68;;
26965;SDS011;14522;52.068;4.414;2023-07-20T05:59:59;0.93;;;0.73;;
26965;SDS011;14522;52.068;4.414;2023-07-20T06:02:25;1.50;;;0.70;;
26965;SDS011;14522;52.068;4.414;2023-07-20T06:04:52;1.02;;;0.70;;
26965;SDS011;14522;52.068;4.414;2023-07-20T06:07:18;2.30;;;1.05;;
26965;SDS011;14522;52.068;4.414;2023-07-20T06:09:44;2.55;;;0.77;;
26965;SDS011;14522;52.068;4.414;2023-07-20T06:12:11;2.28;;;0.50;;
26965;SDS011;14522;52.068;4.414;2023-07-20T06:14:37;1.25;;;0.50;;
26965;SDS011;14522;52.068;4.414;2023-07-20T06:17:04;2.80;;;0.77;;
26965;SDS011;14522;52.068;4.414;2023-07-20T06:19:31;0.93;;;0.45;;
26965;SDS011;14522;52.068;4.414;2023-07-20T06:21:57;2.50;;;0.40;;
26965;SDS011;14522;52.068;4.414;2023-07-20T06:24:24;1.95;;;0.38;;
26965;SDS011;14522;52.068;4.414;2023-07-20T06:26:50;2.28;;;0.40;;
26965;SDS011;14522;52.068;4.414;2023-07-20T06:29:17;1.77;;;0.35;;
26965;SDS011;14522;52.068;4.414;2023-07-20T06:31:43;6.25;;;0.52;;
26965;SDS011;14522;52.068;4.414;2023-07-20T06:34:10;2.55;;;0.45;;
26965;SDS011;14522;52.068;4.414;2023-07-20T06:36:36;0.63;;;0.32;;
26965;SDS011;14522;52.068;4.414;2023-07-20T06:39:03;1.05;;;0.30;;
26965;SDS011;14522;52.068;4.414;2023-07-20T06:41:33;0.60;;;0.30;;
26965;SDS011;14522;52.068;4.414;2023-07-20T06:44:02;2.40;;;0.47;;
26965;SDS011;14522;52.068;4.414;2023-07-20T06:46:29;3.80;;;0.77;;
26965;SDS011;14522;52.068;4.414;2023-07-20T06:48:55;1.67;;;0.40;;
26965;SDS011;14522;52.068;4.414;2023-07-20T06:51:26;2.50;;;0.40;;
26965;SDS011;14522;52.068;4.414;2023-07-20T06:53:52;0.85;;;0.40;;
26965;SDS011;14522;52.068;4.414;2023-07-20T06:56:18;2.42;;;0.60;;
26965;SDS011;14522;52.068;4.414;2023-07-20T06:58:49;0.70;;;0.30;;
26965;SDS011;14522;52.068;4.414;2023-07-20T07:01:16;2.38;;;0.60;;
26965;SDS011;14522;52.068;4.414;2023-07-20T07:03:43;1.40;;;0.57;;
26965;SDS011;14522;52.068;4.414;2023-07-20T07:06:10;5.22;;;0.57;;
26965;SDS011;14522;52.068;4.414;2023-07-20T07:08:36;1.33;;;0.73;;
26965;SDS011;14522;52.068;4.414;2023-07-20T07:11:03;1.65;;;0.80;;
26965;SDS011;14522;52.068;4.414;2023-07-20T07:13:29;1.88;;;0.80;;
26965;SDS011;14522;52.068;4.414;2023-07-20T07:15:56;2.85;;;0.82;;
26965;SDS011;14522;52.068;4.414;2023-07-20T07:18:23;1.88;;;0.60;;
26965;SDS011;14522;52.068;4.414;2023-07-20T07:20:51;1.58;;;0.50;;
26965;SDS011;14522;52.068;4.414;2023-07-20T07:23:18;1.25;;;0.50;;
26965;SDS011;14522;52.068;4.414;2023-07-20T07:25:45;1.58;;;0.40;;
26965;SDS011;14522;52.068;4.414;2023-07-20T07:28:12;1.48;;;0.50;;
26965;SDS011;14522;52.068;4.414;2023-07-20T07:30:38;2.15;;;0.65;;
26965;SDS011;14522;52.068;4.414;2023-07-20T07:33:04;0.60;;;0.50;;
26965;SDS011;14522;52.068;4.414;2023-07-20T07:35:31;0.85;;;0.30;;
26965;SDS011;14522;52.068;4.414;2023-07-20T07:37:57;0.63;;;0.30;;
26965;SDS011;14522;52.068;4.414;2023-07-20T07:40:29;1.67;;;0.60;;
26965;SDS011;14522;52.068;4.414;2023-07-20T07:42:55;1.08;;;0.50;;
26965;SDS011;14522;52.068;4.414;2023-07-20T07:45:22;0.43;;;0.30;;
26965;SDS011;14522;52.068;4.414;2023-07-20T07:47:48;1.50;;;0.40;;
26965;SDS011;14522;52.068;4.414;2023-07-20T07:50:15;0.40;;;0.20;;
26965;SDS011;14522;52.068;4.414;2023-07-20T07:52:41;0.52;;;0.20;;
26965;SDS011;14522;52.068;4.414;2023-07-20T07:55:08;1.23;;;0.63;;
26965;SDS011;14522;52.068;4.414;2023-07-20T07:57:34;1.65;;;0.35;;
26965;SDS011;14522;52.068;4.414;2023-07-20T08:00:01;0.43;;;0.38;;
26965;SDS011;14522;52.068;4.414;2023-07-20T08:02:27;0.40;;;0.20;;
26965;SDS011;14522;52.068;4.414;2023-07-20T08:04:54;0.63;;;0.20;;
26965;SDS011;14522;52.068;4.414;2023-07-20T08:07:21;2.15;;;0.47;;
26965;SDS011;14522;52.068;4.414;2023-07-20T08:09:47;0.32;;;0.17;;
26965;SDS011;14522;52.068;4.414;2023-07-20T08:12:13;0.75;;;0.25;;
26965;SDS011;14522;52.068;4.414;2023-07-20T08:14:40;1.05;;;0.20;;
26965;SDS011;14522;52.068;4.414;2023-07-20T08:17:07;0.43;;;0.20;;
26965;SDS011;14522;52.068;4.414;2023-07-20T08:19:35;0.32;;;0.20;;
26965;SDS011;14522;52.068;4.414;2023-07-20T08:22:03;0.57;;;0.20;;
26965;SDS011;14522;52.068;4.414;2023-07-20T08:24:30;1.85;;;0.13;;
26965;SDS011;14522;52.068;4.414;2023-07-20T08:26:57;0.60;;;0.30;;
26965;SDS011;14522;52.068;4.414;2023-07-20T08:29:23;1.10;;;0.40;;
26965;SDS011;14522;52.068;4.414;2023-07-20T08:31:50;2.08;;;0.45;;
26965;SDS011;14522;52.068;4.414;2023-07-20T08:34:16;0.98;;;0.40;;
26965;SDS011;14522;52.068;4.414;2023-07-20T08:36:57;1.42;;;0.85;;
26965;SDS011;14522;52.068;4.414;2023-07-20T08:39:23;2.83;;;1.08;;
26965;SDS011;14522;52.068;4.414;2023-07-20T08:41:50;0.75;;;0.43;;
26965;SDS011;14522;52.068;4.414;2023-07-20T08:44:18;0.65;;;0.38;;
26965;SDS011;14522;52.068;4.414;2023-07-20T08:46:44;2.20;;;0.30;;
26965;SDS011;14522;52.068;4.414;2023-07-20T08:49:12;0.98;;;0.40;;
26965;SDS011;14522;52.068;4.414;2023-07-20T08:51:39;0.80;;;0.40;;
26965;SDS011;14522;52.068;4.414;2023-07-20T08:54:06;0.50;;;0.30;;
26965;SDS011;14522;52.068;4.414;2023-07-20T08:56:32;0.47;;;0.32;;
26965;SDS011;14522;52.068;4.414;2023-07-20T08:59:00;1.00;;;0.30;;
26965;SDS011;14522;52.068;4.414;2023-07-20T09:01:28;1.05;;;0.30;;
26965;SDS011;14522;52.068;4.414;2023-07-20T09:03:54;0.90;;;0.20;;
26965;SDS011;14522;52.068;4.414;2023-07-20T09:06:21;0.82;;;0.43;;
26965;SDS011;14522;52.068;4.414;2023-07-20T09:08:48;1.08;;;0.40;;
26965;SDS011;14522;52.068;4.414;2023-07-20T09:11:14;1.38;;;0.50;;
26965;SDS011;14522;52.068;4.414;2023-07-20T09:13:41;1.17;;;0.50;;
26965;SDS011;14522;52.068;4.414;2023-07-20T09:16:13;1.00;;;0.30;;
26965;SDS011;14522;52.068;4.414;2023-07-20T09:18:40;0.28;;;0.28;;
26965;SDS011;14522;52.068;4.414;2023-07-20T09:21:07;1.30;;;0.40;;
26965;SDS011;14522;52.068;4.414;2023-07-20T09:23:35;1.92;;;0.25;;
26965;SDS011;14522;52.068;4.414;2023-07-20T09:26:14;0.88;;;0.20;;
26965;SDS011;14522;52.068;4.414;2023-07-20T09:28:42;0.40;;;0.30;;
26965;SDS011;14522;52.068;4.414;2023-07-20T09:31:16;0.20;;;0.20;;
26965;SDS011;14522;52.068;4.414;2023-07-20T09:33:43;0.20;;;0.20;;
26965;SDS011;14522;52.068;4.414;2023-07-20T09:36:13;0.50;;;0.20;;
26965;SDS011;14522;52.068;4.414;2023-07-20T09:38:59;1.63;;;0.20;;
26965;SDS011;14522;52.068;4.414;2023-07-20T09:41:29;1.00;;;0.40;;
26965;SDS011;14522;52.068;4.414;2023-07-20T09:43:58;0.20;;;0.20;;
26965;SDS011;14522;52.068;4.414;2023-07-20T09:46:40;0.40;;;0.20;;
26965;SDS011;14522;52.068;4.414;2023-07-20T09:49:09;0.20;;;0.20;;
26965;SDS011;14522;52.068;4.414;2023-07-20T09:51:40;0.35;;;0.30;;
26965;SDS011;14522;52.068;4.414;2023-07-20T09:54:06;0.20;;;0.20;;
26965;SDS011;14522;52.068;4.414;2023-07-20T09:56:33;1.08;;;0.30;;
26965;SDS011;14522;52.068;4.414;2023-07-20T09:59:00;0.90;;;0.40;;
26965;SDS011;14522;52.068;4.414;2023-07-20T10:01:27;0.25;;;0.22;;
26965;SDS011;14522;52.068;4.414;2023-07-20T10:03:55;1.05;;;0.20;;
26965;SDS011;14522;52.068;4.414;2023-07-20T10:06:24;0.75;;;0.20;;
26965;SDS011;14522;52.068;4.414;2023-07-20T10:08:55;0.80;;;0.30;;
26965;SDS011;14522;52.068;4.414;2023-07-20T10:11:22;0.32;;;0.20;;
26965;SDS011;14522;52.068;4.414;2023-07-20T10:13:51;0.60;;;0.40;;
26965;SDS011;14522;52.068;4.414;2023-07-20T10:16:21;0.47;;;0.30;;
26965;SDS011;14522;52.068;4.414;2023-07-20T10:21:21;1.13;;;0.30;;
26965;SDS011;14522;52.068;4.414;2023-07-20T10:23:54;0.20;;;0.20;;
26965;SDS011;14522;52.068;4.414;2023-07-20T10:26:24;1.83;;;0.40;;
26965;SDS011;14522;52.068;4.414;2023-07-20T10:28:51;1.80;;;0.32;;
26965;SDS011;14522;52.068;4.414;2023-07-20T10:31:17;0.90;;;0.40;;
26965;SDS011;14522;52.068;4.414;2023-07-20T10:33:44;2.65;;;0.30;;
26965;SDS011;14522;52.068;4.414;2023-07-20T10:36:11;1.27;;;0.30;;
26965;SDS011;14522;52.068;4.414;2023-07-20T10:41:19;1.25;;;0.35;;
26965;SDS011;14522;52.068;4.414;2023-07-20T10:43:46;0.77;;;0.40;;
26965;SDS011;14522;52.068;4.414;2023-07-20T10:46:13;1.45;;;0.47;;
26965;SDS011;14522;52.068;4.414;2023-07-20T10:51:24;1.80;;;0.30;;
26965;SDS011;14522;52.068;4.414;2023-07-20T10:53:53;7.43;;;0.55;;
26965;SDS011;14522;52.068;4.414;2023-07-20T10:56:23;1.30;;;0.40;;
26965;SDS011;14522;52.068;4.414;2023-07-20T10:58:57;0.63;;;0.35;;
26965;SDS011;14522;52.068;4.414;2023-07-20T11:01:27;1.13;;;0.30;;
26965;SDS011;14522;52.068;4.414;2023-07-20T11:03:56;4.47;;;0.20;;
26965;SDS011;14522;52.068;4.414;2023-07-20T11:09:09;0.52;;;0.38;;
26965;SDS011;14522;52.068;4.414;2023-07-20T11:11:44;1.33;;;0.40;;
26965;SDS011;14522;52.068;4.414;2023-07-20T11:14:20;1.30;;;0.30;;
26965;SDS011;14522;52.068;4.414;2023-07-20T11:16:48;0.88;;;0.30;;
26965;SDS011;14522;52.068;4.414;2023-07-20T11:21:49;0.28;;;0.20;;
26965;SDS011;14522;52.068;4.414;2023-07-20T11:24:27;0.90;;;0.32;;
26965;SDS011;14522;52.068;4.414;2023-07-20T11:26:54;0.30;;;0.20;;
26965;SDS011;14522;52.068;4.414;2023-07-20T11:29:21;1.85;;;0.20;;
26965;SDS011;14522;52.068;4.414;2023-07-20T11:31:57;0.80;;;0.30;;
26965;SDS011;14522;52.068;4.414;2023-07-20T11:34:27;0.57;;;0.45;;
26965;SDS011;14522;52.068;4.414;2023-07-20T11:36:54;1.48;;;0.30;;
26965;SDS011;14522;52.068;4.414;2023-07-20T11:39:23;0.25;;;0.20;;
26965;SDS011;14522;52.068;4.414;2023-07-20T11:41:52;3.30;;;0.50;;
26965;SDS011;14522;52.068;4.414;2023-07-20T11:44:20;2.13;;;0.40;;
26965;SDS011;14522;52.068;4.414;2023-07-20T11:47:03;1.13;;;0.43;;
26965;SDS011;14522;52.068;4.414;2023-07-20T11:49:30;1.23;;;0.25;;
26965;SDS011;14522;52.068;4.414;2023-07-20T11:52:00;0.75;;;0.30;;
26965;SDS011;14522;52.068;4.414;2023-07-20T11:54:27;3.65;;;0.63;;
26965;SDS011;14522;52.068;4.414;2023-07-20T11:56:54;1.15;;;0.22;;
26965;SDS011;14522;52.068;4.414;2023-07-20T11:59:21;0.75;;;0.40;;
26965;SDS011;14522;52.068;4.414;2023-07-20T12:01:47;1.33;;;0.30;;
26965;SDS011;14522;52.068;4.414;2023-07-20T12:04:14;0.28;;;0.15;;
26965;SDS011;14522;52.068;4.414;2023-07-20T12:06:41;0.30;;;0.20;;
26965;SDS011;14522;52.068;4.414;2023-07-20T12:09:12;0.63;;;0.30;;
26965;SDS011;14522;52.068;4.414;2023-07-20T12:11:39;1.58;;;0.30;;
26965;SDS011;14522;52.068;4.414;2023-07-20T12:14:06;0.57;;;0.20;;
26965;SDS011;14522;52.068;4.414;2023-07-20T12:16:43;1.02;;;0.30;;
26965;SDS011;14522;52.068;4.414;2023-07-20T12:19:10;0.70;;;0.30;;
26965;SDS011;14522;52.068;4.414;2023-07-20T12:21:39;0.93;;;0.50;;
26965;SDS011;14522;52.068;4.414;2023-07-20T12:24:06;0.40;;;0.22;;
26965;SDS011;14522;52.068;4.414;2023-07-20T12:26:33;0.50;;;0.30;;
26965;SDS011;14522;52.068;4.414;2023-07-20T12:29:00;1.65;;;0.30;;
26965;SDS011;14522;52.068;4.414;2023-07-20T12:31:26;0.90;;;0.30;;
26965;SDS011;14522;52.068;4.414;2023-07-20T12:33:53;0.50;;;0.32;;
26965;SDS011;14522;52.068;4.414;2023-07-20T12:36:21;1.70;;;0.40;;
26965;SDS011;14522;52.068;4.414;2023-07-20T12:38:48;1.75;;;0.22;;
26965;SDS011;14522;52.068;4.414;2023-07-20T12:41:15;0.32;;;0.20;;
26965;SDS011;14522;52.068;4.414;2023-07-20T12:43:41;0.55;;;0.22;;
26965;SDS011;14522;52.068;4.414;2023-07-20T12:46:08;3.30;;;0.32;;
26965;SDS011;14522;52.068;4.414;2023-07-20T12:48:35;2.85;;;0.50;;
26965;SDS011;14522;52.068;4.414;2023-07-20T12:51:07;0.70;;;0.20;;
26965;SDS011;14522;52.068;4.414;2023-07-20T12:53:34;0.32;;;0.28;;
26965;SDS011;14522;52.068;4.414;2023-07-20T12:56:00;0.65;;;0.30;;
26965;SDS011;14522;52.068;4.414;2023-07-20T12:58:46;0.35;;;0.15;;
26965;SDS011;14522;52.068;4.414;2023-07-20T13:01:16;0.70;;;0.30;;
26965;SDS011;14522;52.068;4.414;2023-07-20T13:03:42;1.25;;;0.20;;
26965;SDS011;14522;52.068;4.414;2023-07-20T13:06:12;0.57;;;0.40;;
26965;SDS011;14522;52.068;4.414;2023-07-20T13:08:41;0.65;;;0.28;;
26965;SDS011;14522;52.068;4.414;2023-07-20T13:11:07;0.73;;;0.20;;
26965;SDS011;14522;52.068;4.414;2023-07-20T13:13:34;0.52;;;0.20;;
26965;SDS011;14522;52.068;4.414;2023-07-20T13:16:02;0.70;;;0.30;;
26965;SDS011;14522;52.068;4.414;2023-07-20T13:18:28;1.75;;;0.50;;
26965;SDS011;14522;52.068;4.414;2023-07-20T13:20:56;0.80;;;0.30;;
26965;SDS011;14522;52.068;4.414;2023-07-20T13:23:23;1.95;;;0.20;;
26965;SDS011;14522;52.068;4.414;2023-07-20T13:25:49;0.65;;;0.13;;
26965;SDS011;14522;52.068;4.414;2023-07-20T13:28:16;0.73;;;0.32;;
26965;SDS011;14522;52.068;4.414;2023-07-20T13:30:42;0.15;;;0.10;;
26965;SDS011;14522;52.068;4.414;2023-07-20T13:33:11;0.50;;;0.20;;
26965;SDS011;14522;52.068;4.414;2023-07-20T13:35:43;0.65;;;0.30;;
26965;SDS011;14522;52.068;4.414;2023-07-20T13:38:13;0.45;;;0.28;;
26965;SDS011;14522;52.068;4.414;2023-07-20T13:40:39;0.20;;;0.10;;
26965;SDS011;14522;52.068;4.414;2023-07-20T13:43:06;2.50;;;0.43;;
26965;SDS011;14522;52.068;4.414;2023-07-20T13:45:32;0.95;;;0.20;;
26965;SDS011;14522;52.068;4.414;2023-07-20T13:47:58;0.40;;;0.28;;
26965;SDS011;14522;52.068;4.414;2023-07-20T13:50:28;0.20;;;0.20;;
26965;SDS011;14522;52.068;4.414;2023-07-20T13:53:07;0.95;;;0.30;;
26965;SDS011;14522;52.068;4.414;2023-07-20T13:55:37;1.00;;;0.20;;
26965;SDS011;14522;52.068;4.414;2023-07-20T13:58:07;0.40;;;0.15;;
26965;SDS011;14522;52.068;4.414;2023-07-20T14:00:38;1.95;;;0.25;;
26965;SDS011;14522;52.068;4.414;2023-07-20T14:03:05;0.50;;;0.25;;
26965;SDS011;14522;52.068;4.414;2023-07-20T14:05:34;1.88;;;0.22;;
26965;SDS011;14522;52.068;4.414;2023-07-20T14:08:03;0.68;;;0.10;;
26965;SDS011;14522;52.068;4.414;2023-07-20T14:10:30;0.45;;;0.15;;
26965;SDS011;14522;52.068;4.414;2023-07-20T14:12:56;1.17;;;0.32;;
26965;SDS011;14522;52.068;4.414;2023-07-20T14:15:23;0.60;;;0.20;;
26965;SDS011;14522;52.068;4.414;2023-07-20T14:17:49;0.32;;;0.30;;
26965;SDS011;14522;52.068;4.414;2023-07-20T14:20:15;2.10;;;0.25;;
26965;SDS011;14522;52.068;4.414;2023-07-20T14:22:45;2.90;;;0.30;;
26965;SDS011;14522;52.068;4.414;2023-07-20T14:25:11;0.30;;;0.30;;
26965;SDS011;14522;52.068;4.414;2023-07-20T14:27:38;0.20;;;0.20;;
26965;SDS011;14522;52.068;4.414;2023-07-20T14:30:04;0.63;;;0.10;;
26965;SDS011;14522;52.068;4.414;2023-07-20T14:32:31;0.40;;;0.30;;
26965;SDS011;14522;52.068;4.414;2023-07-20T14:34:59;2.15;;;0.20;;
26965;SDS011;14522;52.068;4.414;2023-07-20T14:37:25;0.43;;;0.40;;
26965;SDS011;14522;52.068;4.414;2023-07-20T14:39:54;0.38;;;0.10;;
26965;SDS011;14522;52.068;4.414;2023-07-20T14:42:21;0.57;;;0.40;;
26965;SDS011;14522;52.068;4.414;2023-07-20T14:44:47;0.28;;;0.20;;
26965;SDS011;14522;52.068;4.414;2023-07-20T14:47:14;1.88;;;0.30;;
26965;SDS011;14522;52.068;4.414;2023-07-20T14:49:41;0.68;;;0.10;;
26965;SDS011;14522;52.068;4.414;2023-07-20T14:52:08;0.30;;;0.30;;
26965;SDS011;14522;52.068;4.414;2023-07-20T14:54:37;0.88;;;0.28;;
26965;SDS011;14522;52.068;4.414;2023-07-20T14:57:04;1.83;;;0.20;;
26965;SDS011;14522;52.068;4.414;2023-07-20T14:59:31;2.08;;;0.30;;
26965;SDS011;14522;52.068;4.414;2023-07-20T15:01:57;2.40;;;0.40;;
26965;SDS011;14522;52.068;4.414;2023-07-20T15:04:24;0.85;;;0.40;;
26965;SDS011;14522;52.068;4.414;2023-07-20T15:06:50;2.78;;;0.30;;
26965;SDS011;14522;52.068;4.414;2023-07-20T15:09:16;0.93;;;0.30;;
26965;SDS011;14522;52.068;4.414;2023-07-20T15:11:43;1.23;;;0.25;;